createdAt,value
2019-02-24T00:01:04.354Z,43.93
2019-02-24T00:04:08.189Z,46.73
2019-02-24T00:07:12.115Z,45.67
2019-02-24T00:10:15.950Z,48.27
2019-02-24T00:13:19.897Z,47.57
2019-02-24T00:16:23.780Z,49.53
2019-02-24T00:19:27.645Z,43.00
2019-02-24T00:22:31.512Z,44.80
2019-02-24T00:25:35.372Z,45.30
2019-02-24T00:28:39.230Z,45.30
2019-02-24T00:31:43.069Z,45.47
2019-02-24T00:34:46.935Z,46.77
2019-02-24T00:37:50.765Z,43.33
2019-02-24T00:40:54.646Z,41.27
2019-02-24T00:43:58.546Z,41.30
2019-02-24T00:47:02.391Z,40.87
2019-02-24T00:50:08.762Z,38.90
2019-02-24T00:53:12.723Z,36.13
2019-02-24T00:56:16.635Z,36.47
2019-02-24T00:59:20.491Z,37.50
2019-02-24T01:02:24.403Z,35.77
2019-02-24T01:05:28.302Z,37.37
2019-02-24T01:08:32.149Z,38.17
2019-02-24T01:11:36.018Z,38.43
2019-02-24T01:14:39.872Z,36.77
2019-02-24T01:17:43.761Z,38.17
2019-02-24T01:20:47.581Z,34.97
2019-02-24T01:23:51.467Z,34.70
2019-02-24T01:26:55.352Z,33.57
2019-02-24T01:29:59.209Z,35.60
2019-02-24T01:33:03.045Z,34.60
2019-02-24T01:36:06.900Z,37.20
2019-02-24T01:39:10.761Z,32.43
2019-02-24T01:42:14.650Z,33.33
2019-02-24T01:45:18.516Z,30.37
2019-02-24T01:48:22.401Z,32.60
2019-02-24T01:51:26.223Z,31.80
2019-02-24T01:54:30.094Z,31.93
2019-02-24T01:57:33.965Z,31.00
2019-02-24T02:00:37.830Z,32.77
2019-02-24T02:03:41.688Z,34.70
2019-02-24T02:06:45.576Z,30.30
2019-02-24T02:09:49.473Z,35.90
2019-02-24T02:12:53.332Z,39.83
2019-02-24T02:15:57.209Z,37.83
2019-02-24T02:19:01.034Z,36.87
2019-02-24T02:22:04.926Z,37.70
2019-02-24T02:25:09.671Z,34.63
2019-02-24T02:28:13.536Z,33.73
2019-02-24T02:31:17.375Z,34.40
2019-02-24T02:34:21.240Z,32.87
2019-02-24T02:37:25.060Z,31.80
2019-02-24T02:40:28.961Z,31.73
2019-02-24T02:43:32.813Z,32.03
2019-02-24T02:46:36.646Z,33.83
2019-02-24T02:49:40.501Z,33.63
2019-02-24T02:52:44.328Z,32.87
2019-02-24T02:55:48.190Z,31.57
2019-02-24T02:58:54.658Z,30.43
2019-02-24T03:01:57.543Z,30.17
2019-02-24T03:05:01.386Z,31.63
2019-02-24T03:08:06.801Z,30.50
2019-02-24T03:11:10.679Z,31.20
2019-02-24T03:14:14.530Z,31.93
2019-02-24T03:17:18.402Z,32.20
2019-02-24T03:20:22.246Z,32.20
2019-02-24T03:23:26.125Z,33.50
2019-02-24T03:26:29.989Z,32.43
2019-02-24T03:29:33.863Z,31.40
2019-02-24T03:32:37.715Z,30.57
2019-02-24T03:35:41.616Z,31.50
2019-02-24T03:38:45.502Z,33.53
2019-02-24T03:41:49.334Z,33.27
2019-02-24T03:44:53.195Z,32.33
2019-02-24T03:47:57.045Z,30.97
2019-02-24T03:51:00.905Z,32.87
2019-02-24T03:54:04.750Z,35.17
2019-02-24T03:57:08.623Z,34.33
2019-02-24T04:00:12.596Z,32.03
2019-02-24T04:03:16.451Z,31.73
2019-02-24T04:06:20.355Z,32.40
2019-02-24T04:09:24.210Z,32.50
2019-02-24T04:12:28.065Z,34.60
2019-02-24T04:15:31.904Z,32.30
2019-02-24T04:18:35.767Z,32.07
2019-02-24T04:21:39.602Z,29.53
2019-02-24T04:24:43.468Z,32.90
2019-02-24T04:27:47.310Z,32.90
2019-02-24T04:30:51.166Z,34.27
2019-02-24T04:33:55.077Z,33.77
2019-02-24T04:36:58.920Z,34.73
2019-02-24T04:40:02.812Z,34.97
2019-02-24T04:43:06.633Z,36.23
2019-02-24T04:46:10.518Z,35.13
2019-02-24T04:49:14.365Z,39.27
2019-02-24T04:52:18.251Z,39.10
2019-02-24T04:55:22.099Z,37.80
2019-02-24T04:58:25.936Z,35.30
2019-02-24T05:01:29.821Z,37.77
2019-02-24T05:04:33.671Z,37.27
2019-02-24T05:07:37.543Z,38.33
2019-02-24T05:10:41.391Z,35.90
2019-02-24T05:13:45.246Z,34.10
2019-02-24T05:16:49.063Z,37.17
2019-02-24T05:19:52.941Z,38.03
2019-02-24T05:22:56.822Z,37.80
2019-02-24T05:26:00.638Z,36.23
2019-02-24T05:29:04.510Z,33.80
2019-02-24T05:32:08.351Z,33.43
2019-02-24T05:35:12.198Z,31.33
2019-02-24T05:38:16.430Z,26.67
2019-02-24T05:41:20.297Z,28.47
2019-02-24T05:44:24.141Z,29.17
2019-02-24T05:47:28.005Z,27.23
2019-02-24T05:50:31.905Z,29.33
2019-02-24T05:53:35.747Z,26.60
2019-02-24T05:56:39.596Z,27.07
2019-02-24T05:59:43.430Z,27.47
2019-02-24T06:02:47.291Z,25.70
2019-02-24T06:05:51.143Z,26.00
2019-02-24T06:08:55.008Z,27.27
2019-02-24T06:11:58.833Z,24.77
2019-02-24T06:15:02.711Z,25.93
2019-02-24T06:18:06.603Z,27.60
2019-02-24T06:21:10.453Z,26.27
2019-02-24T06:24:14.300Z,29.23
2019-02-24T06:27:18.158Z,27.10
2019-02-24T06:30:22.003Z,27.00
2019-02-24T06:33:25.849Z,25.57
2019-02-24T06:36:29.701Z,26.87
2019-02-24T06:39:33.542Z,28.13
2019-02-24T06:42:37.404Z,25.60
2019-02-24T06:45:41.284Z,26.13
2019-02-24T06:48:45.135Z,25.10
2019-02-24T06:51:49.008Z,25.67
2019-02-24T06:54:52.834Z,26.07
2019-02-24T06:57:56.702Z,23.97
2019-02-24T07:01:00.558Z,25.00
2019-02-24T07:04:04.419Z,24.90
2019-02-24T07:07:08.335Z,22.97
2019-02-24T07:10:12.182Z,23.60
2019-02-24T07:13:16.057Z,22.57
2019-02-24T07:16:19.915Z,22.50
2019-02-24T07:19:23.829Z,22.77
2019-02-24T07:22:27.656Z,22.07
2019-02-24T07:25:31.529Z,21.77
2019-02-24T07:28:35.399Z,23.03
2019-02-24T07:31:39.258Z,20.20
2019-02-24T07:34:43.210Z,19.13
2019-02-24T07:37:47.063Z,17.90
2019-02-24T07:40:50.957Z,18.93
2019-02-24T07:43:54.782Z,19.33
2019-02-24T07:46:58.692Z,17.03
2019-02-24T07:50:02.554Z,16.90
2019-02-24T07:53:06.427Z,19.67
2019-02-24T07:56:10.265Z,20.47
2019-02-24T07:59:14.169Z,19.70
2019-02-24T08:02:18.079Z,19.90
2019-02-24T08:05:21.924Z,20.30
2019-02-24T08:08:25.771Z,21.67
2019-02-24T08:11:29.616Z,20.50
2019-02-24T08:14:33.466Z,21.10
2019-02-24T08:17:37.293Z,21.27
2019-02-24T08:20:41.190Z,21.17
2019-02-24T08:23:45.020Z,21.30
2019-02-24T08:26:48.891Z,20.13
2019-02-24T08:29:52.819Z,19.37
2019-02-24T08:32:56.649Z,18.40
2019-02-24T08:36:00.510Z,19.63
2019-02-24T08:39:04.924Z,17.70
2019-02-24T08:42:08.817Z,17.77
2019-02-24T08:45:12.630Z,17.60
2019-02-24T08:48:16.476Z,18.27
2019-02-24T08:51:20.312Z,19.30
2019-02-24T08:54:24.190Z,20.43
2019-02-24T08:57:28.136Z,19.77
2019-02-24T09:00:32.064Z,18.00
2019-02-24T09:03:35.945Z,18.97
2019-02-24T09:06:39.764Z,18.40
2019-02-24T09:09:43.629Z,18.47
2019-02-24T09:12:47.456Z,19.33
2019-02-24T09:15:53.215Z,20.17
2019-02-24T09:18:56.834Z,19.70
2019-02-24T09:22:00.665Z,20.23
2019-02-24T09:25:04.733Z,20.90
2019-02-24T09:28:08.571Z,21.23
2019-02-24T09:31:12.448Z,20.53
2019-02-24T09:34:16.294Z,20.23
2019-02-24T09:37:20.165Z,21.23
2019-02-24T09:40:23.996Z,26.43
2019-02-24T09:43:27.850Z,23.43
2019-02-24T09:46:31.770Z,29.87
2019-02-24T09:49:35.583Z,24.40
2019-02-24T09:52:39.471Z,23.23
2019-02-24T09:55:43.309Z,27.20
2019-02-24T09:58:47.150Z,23.20
2019-02-24T10:01:50.976Z,24.27
2019-02-24T10:04:54.820Z,23.83
2019-02-24T10:07:58.645Z,24.50
2019-02-24T10:11:02.501Z,22.97
2019-02-24T10:14:06.354Z,24.20
2019-02-24T10:17:10.226Z,24.03
2019-02-24T10:20:14.310Z,25.27
2019-02-24T10:23:18.165Z,27.67
2019-02-24T10:26:22.025Z,27.50
2019-02-24T10:29:25.865Z,27.10
2019-02-24T10:32:29.750Z,28.57
2019-02-24T10:35:33.581Z,28.93
2019-02-24T10:38:37.454Z,27.83
2019-02-24T10:41:41.390Z,28.50
2019-02-24T10:44:45.240Z,29.37
2019-02-24T10:47:49.162Z,20.70
2019-02-24T10:50:53.007Z,26.83
2019-02-24T10:53:56.902Z,27.73
2019-02-24T10:57:00.719Z,27.77
2019-02-24T11:00:07.552Z,27.50
2019-02-24T11:03:11.568Z,27.13
2019-02-24T11:06:15.386Z,26.93
2019-02-24T11:09:19.337Z,29.47
2019-02-24T11:12:23.191Z,28.40
2019-02-24T11:15:27.018Z,27.73
2019-02-24T11:18:30.877Z,29.23
2019-02-24T11:21:34.780Z,27.57
2019-02-24T11:24:38.606Z,29.17
2019-02-24T11:27:42.449Z,28.47
2019-02-24T11:30:46.297Z,27.13
2019-02-24T11:33:50.831Z,28.10
2019-02-24T11:36:54.707Z,25.60
2019-02-24T11:39:58.555Z,24.70
2019-02-24T11:43:02.432Z,25.40
2019-02-24T11:46:06.265Z,21.13
2019-02-24T11:49:10.128Z,23.70
2019-02-24T11:52:13.990Z,22.90
2019-02-24T11:55:17.888Z,21.73
2019-02-24T11:58:21.721Z,21.80
2019-02-24T12:01:25.564Z,21.67
2019-02-24T12:04:29.915Z,19.80
2019-02-24T12:07:33.786Z,18.87
2019-02-24T12:10:37.667Z,18.63
2019-02-24T12:13:41.503Z,18.50
2019-02-24T12:16:45.362Z,19.10
2019-02-24T12:19:50.151Z,17.57
2019-02-24T12:22:54.027Z,16.53
2019-02-24T12:25:57.859Z,16.20
2019-02-24T12:29:01.737Z,16.80
2019-02-24T12:32:06.170Z,15.73
2019-02-24T12:35:10.166Z,16.73
2019-02-24T12:38:14.041Z,16.37
2019-02-24T12:41:17.873Z,15.17
2019-02-24T12:44:21.725Z,14.70
2019-02-24T12:47:25.691Z,16.03
2019-02-24T12:50:29.740Z,15.10
2019-02-24T12:53:33.617Z,15.17
2019-02-24T12:56:38.931Z,15.17
2019-02-24T12:59:43.697Z,15.90
2019-02-24T13:02:47.583Z,15.73
2019-02-24T13:05:51.454Z,14.07
2019-02-24T13:08:55.315Z,16.03
2019-02-24T13:11:59.168Z,15.87
2019-02-24T13:15:03.474Z,15.63
2019-02-24T13:18:07.622Z,15.93
2019-02-24T13:21:12.415Z,14.70
2019-02-24T13:24:16.274Z,17.17
2019-02-24T13:27:20.124Z,17.57
2019-02-24T13:30:23.964Z,19.03
2019-02-24T13:33:27.907Z,17.73
2019-02-24T13:36:31.733Z,21.03
2019-02-24T13:39:35.600Z,20.77
2019-02-24T13:42:39.412Z,20.67
2019-02-24T13:45:43.271Z,20.37
2019-02-24T13:48:47.153Z,19.80
2019-02-24T13:51:51.052Z,19.67
2019-02-24T13:54:54.897Z,18.80
2019-02-24T13:57:58.734Z,17.80
2019-02-24T14:01:02.592Z,18.87
2019-02-24T14:04:06.545Z,18.90
2019-02-24T14:07:10.419Z,19.17
2019-02-24T14:10:14.990Z,19.70
2019-02-24T14:13:18.850Z,20.50
2019-02-24T14:16:22.662Z,21.77
2019-02-24T14:19:26.532Z,20.30
2019-02-24T14:22:30.457Z,21.50
2019-02-24T14:25:34.258Z,22.53
2019-02-24T14:28:38.148Z,24.13
2019-02-24T14:31:42.001Z,23.93
2019-02-24T14:34:45.854Z,23.70
2019-02-24T14:37:49.707Z,25.47
2019-02-24T14:40:53.568Z,24.47
2019-02-24T14:43:57.374Z,25.67
2019-02-24T14:47:01.212Z,26.03
2019-02-24T14:50:06.008Z,26.93
2019-02-24T14:53:09.847Z,25.10
2019-02-24T14:56:13.711Z,26.27
2019-02-24T14:59:17.546Z,58.97
2019-02-24T15:02:21.503Z,28.10
2019-02-24T15:05:25.357Z,27.30
2019-02-24T15:08:29.236Z,26.50
2019-02-24T15:11:33.068Z,24.40
2019-02-24T15:14:37.037Z,24.27
2019-02-24T15:17:40.902Z,23.20
2019-02-24T15:20:44.870Z,22.03
2019-02-24T15:23:48.786Z,20.97
2019-02-24T15:26:52.631Z,21.07
2019-02-24T15:29:56.524Z,21.57
2019-02-24T15:33:00.362Z,24.57
2019-02-24T15:36:04.292Z,22.63
2019-02-24T15:39:08.202Z,20.87
2019-02-24T15:42:12.137Z,20.23
2019-02-24T15:45:16.347Z,25.60
2019-02-24T15:48:20.199Z,20.63
2019-02-24T15:51:24.073Z,22.23
2019-02-24T15:54:27.917Z,22.27
2019-02-24T15:57:32.197Z,20.33
2019-02-24T16:00:36.113Z,20.37
2019-02-24T16:03:39.988Z,20.67
2019-02-24T16:06:43.827Z,21.60
2019-02-24T16:09:47.821Z,22.03
2019-02-24T16:12:51.732Z,21.67
2019-02-24T16:15:55.580Z,22.60
2019-02-24T16:18:59.483Z,22.73
2019-02-24T16:22:03.315Z,22.67
2019-02-24T16:25:08.576Z,23.33
2019-02-24T16:28:12.442Z,24.20
2019-02-24T16:31:16.282Z,24.40
2019-02-24T16:34:20.137Z,22.73
2019-02-24T16:37:24.004Z,25.43
2019-02-24T16:40:30.826Z,26.17
2019-02-24T16:43:34.712Z,26.90
2019-02-24T16:46:38.600Z,28.43
2019-02-24T16:49:42.519Z,27.40
2019-02-24T16:52:46.414Z,26.87
2019-02-24T16:55:50.261Z,26.30
2019-02-24T16:58:54.173Z,26.77
2019-02-24T17:01:58.025Z,28.80
2019-02-24T17:05:01.986Z,27.90
2019-02-24T17:08:05.803Z,27.97
2019-02-24T17:11:09.692Z,29.17
2019-02-24T17:14:13.622Z,29.50
2019-02-24T17:17:17.494Z,27.03
2019-02-24T17:20:23.732Z,33.48
2019-02-24T17:23:27.623Z,32.40
2019-02-24T17:26:31.606Z,25.60
2019-02-24T17:29:35.517Z,26.07
2019-02-24T17:32:39.503Z,25.33
2019-02-24T17:35:43.409Z,25.13
2019-02-24T17:38:47.332Z,26.33
2019-02-24T17:41:51.201Z,28.30
2019-02-24T17:44:55.054Z,27.70
2019-02-24T17:47:59.006Z,30.23
2019-02-24T17:51:02.857Z,27.43
2019-02-24T17:54:06.763Z,27.97
2019-02-24T17:57:10.715Z,29.93
2019-02-24T18:00:24.977Z,28.17
2019-02-24T18:03:29.055Z,29.30
2019-02-24T18:06:32.938Z,27.43
2019-02-24T18:09:36.826Z,30.37
2019-02-24T18:12:40.740Z,33.77
2019-02-24T18:15:44.696Z,32.00
2019-02-24T18:18:48.607Z,32.03
2019-02-24T18:21:52.551Z,32.87
2019-02-24T18:25:02.916Z,33.90
2019-02-24T18:28:02.187Z,35.53
2019-02-24T18:31:07.709Z,33.43
2019-02-24T18:34:11.643Z,33.43
2019-02-24T18:37:15.621Z,31.30
2019-02-24T18:40:19.647Z,31.47
2019-02-24T18:43:23.548Z,29.43
2019-02-24T18:46:27.458Z,31.07
2019-02-24T18:49:31.432Z,29.37
2019-02-24T18:52:35.338Z,30.00
2019-02-24T18:55:39.296Z,30.87
2019-02-24T18:58:43.240Z,31.30
2019-02-24T19:01:47.292Z,31.97
2019-02-24T19:04:51.266Z,31.50
2019-02-24T19:07:55.278Z,32.30
2019-02-24T19:10:59.469Z,31.67
2019-02-24T19:14:03.495Z,31.90
2019-02-24T19:17:07.646Z,31.40
2019-02-24T19:20:16.646Z,34.03
2019-02-24T19:23:20.697Z,32.60
2019-02-24T19:26:24.644Z,35.13
2019-02-24T19:29:28.595Z,33.13
2019-02-24T19:32:32.607Z,32.90
2019-02-24T19:35:36.519Z,32.37
2019-02-24T19:38:40.480Z,33.97
2019-02-24T19:41:44.389Z,31.63
2019-02-24T19:44:48.332Z,31.13
2019-02-24T19:47:52.356Z,31.97
2019-02-24T19:50:56.315Z,30.83
2019-02-24T19:54:00.218Z,30.50
2019-02-24T19:57:04.302Z,31.40
2019-02-24T20:00:13.959Z,31.80
2019-02-24T20:03:17.889Z,31.60
2019-02-24T20:06:21.810Z,31.57
2019-02-24T20:09:25.765Z,30.60
2019-02-24T20:12:29.726Z,30.80
2019-02-24T20:15:35.726Z,28.93
2019-02-24T20:18:39.518Z,27.10
2019-02-24T20:21:43.487Z,27.20
2019-02-24T20:24:47.436Z,27.33
2019-02-24T20:27:51.372Z,28.07
2019-02-24T20:30:55.401Z,27.73
2019-02-24T20:33:59.339Z,27.37
2019-02-24T20:37:03.252Z,31.37
2019-02-24T20:40:09.538Z,28.23
2019-02-24T20:43:13.582Z,27.27
2019-02-24T20:46:17.576Z,25.53
2019-02-24T20:49:21.544Z,23.87
2019-02-24T20:52:25.469Z,24.27
2019-02-24T20:55:29.407Z,25.27
2019-02-24T20:58:33.378Z,27.60
2019-02-24T21:01:37.273Z,24.77
2019-02-24T21:04:41.103Z,24.63
2019-02-24T21:07:45.067Z,25.60
2019-02-24T21:10:48.967Z,22.27
2019-02-24T21:13:52.966Z,21.70
2019-02-24T21:16:56.911Z,21.40
2019-02-24T21:20:00.764Z,19.43
2019-02-24T21:23:04.997Z,18.83
2019-02-24T21:26:08.917Z,20.07
2019-02-24T21:29:12.882Z,19.23
2019-02-24T21:32:16.724Z,19.97
2019-02-24T21:35:20.582Z,19.17
2019-02-24T21:38:24.428Z,19.43
2019-02-24T21:41:29.818Z,19.70
2019-02-24T21:44:33.792Z,18.80
2019-02-24T21:47:37.706Z,19.57
2019-02-24T21:50:42.040Z,19.87
2019-02-24T21:53:45.889Z,18.80
2019-02-24T21:56:49.734Z,19.03
2019-02-24T21:59:53.602Z,21.10
2019-02-24T22:02:57.527Z,20.20
2019-02-24T22:06:01.358Z,21.00
2019-02-24T22:09:07.793Z,22.03
2019-02-24T22:12:11.657Z,19.87
2019-02-24T22:15:21.006Z,19.87
2019-02-24T22:18:24.832Z,20.57
2019-02-24T22:21:28.733Z,21.30
2019-02-24T22:24:32.556Z,21.07
2019-02-24T22:27:36.462Z,19.60
2019-02-24T22:30:41.692Z,19.57
2019-02-24T22:33:45.535Z,21.93
2019-02-24T22:36:49.392Z,22.23
2019-02-24T22:39:53.272Z,22.97
2019-02-24T22:42:57.105Z,22.37
2019-02-24T22:46:00.985Z,21.33
2019-02-24T22:49:04.900Z,21.93
2019-02-24T22:52:08.726Z,21.63
2019-02-24T22:55:14.502Z,19.90
2019-02-24T22:58:18.355Z,20.83
2019-02-24T23:01:24.149Z,20.00
2019-02-24T23:04:27.984Z,21.67
2019-02-24T23:07:31.862Z,20.80
2019-02-24T23:10:35.702Z,21.40
2019-02-24T23:13:39.618Z,20.13
2019-02-24T23:16:43.446Z,20.50
2019-02-24T23:19:47.326Z,21.67
2019-02-24T23:22:51.158Z,21.70
2019-02-24T23:25:55.080Z,21.73
2019-02-24T23:28:58.921Z,22.03
2019-02-24T23:32:02.787Z,21.93
2019-02-24T23:35:07.213Z,20.90
2019-02-24T23:38:11.018Z,21.23
2019-02-24T23:41:14.868Z,21.20
2019-02-24T23:44:18.727Z,21.70
2019-02-24T23:47:22.607Z,20.67
2019-02-24T23:50:26.436Z,20.73
2019-02-24T23:53:30.316Z,21.60
2019-02-24T23:56:34.181Z,21.50
2019-02-24T23:59:38.077Z,22.00
